sensor_id;sensor_type;location;lat;lon;timestamp;pressure;altitude;pressure_sealevel;temperature;humidity
9129;BME280;4599;50.906;6.786;2023-07-31T00:02:08;99888.03;;;16.32;86.12
9129;BME280;4599;50.906;6.786;2023-07-31T00:06:30;99889.34;;;16.36;85.49
9129;BME280;4599;50.906;6.786;2023-07-31T00:10:53;99892.09;;;16.42;85.41
9129;BME280;4599;50.906;6.786;2023-07-31T00:15:15;99889.97;;;16.38;85.44
9129;BME280;4599;50.906;6.786;2023-07-31T00:19:37;99884.28;;;16.26;86.24
9129;BME280;4599;50.906;6.786;2023-07-31T00:23:59;99892.56;;;16.38;85.45
9129;BME280;4599;50.906;6.786;2023-07-31T00:28:22;99886.25;;;16.40;85.20
9129;BME280;4599;50.906;6.786;2023-07-31T00:32:44;99899.69;;;16.36;85.79
9129;BME280;4599;50.906;6.786;2023-07-31T00:37:06;99904.81;;;16.28;85.15
9129;BME280;4599;50.906;6.786;2023-07-31T00:41:28;99908.06;;;16.38;84.75
9129;BME280;4599;50.906;6.786;2023-07-31T00:45:51;99893.88;;;16.42;83.49
9129;BME280;4599;50.906;6.786;2023-07-31T00:50:14;99899.69;;;16.44;84.67
9129;BME280;4599;50.906;6.786;2023-07-31T00:54:36;99891.75;;;16.37;83.86
9129;BME280;4599;50.906;6.786;2023-07-31T00:58:58;99890.47;;;16.41;83.46
9129;BME280;4599;50.906;6.786;2023-07-31T01:03:22;99871.22;;;16.44;83.45
9129;BME280;4599;50.906;6.786;2023-07-31T01:07:50;99867.19;;;16.41;83.14
9129;BME280;4599;50.906;6.786;2023-07-31T01:12:15;99873.78;;;16.28;84.17
9129;BME280;4599;50.906;6.786;2023-07-31T01:16:37;99865.06;;;16.29;83.76
9129;BME280;4599;50.906;6.786;2023-07-31T01:21:11;99871.06;;;16.37;83.66
9129;BME280;4599;50.906;6.786;2023-07-31T01:26:00;99862.81;;;16.34;83.80
9129;BME280;4599;50.906;6.786;2023-07-31T01:30:28;99865.09;;;16.45;83.15
9129;BME280;4599;50.906;6.786;2023-07-31T01:34:53;99864.78;;;16.40;83.60
9129;BME280;4599;50.906;6.786;2023-07-31T01:39:16;99867.66;;;16.37;83.20
9129;BME280;4599;50.906;6.786;2023-07-31T01:43:39;99872.44;;;16.58;82.55
9129;BME280;4599;50.906;6.786;2023-07-31T01:48:01;99863.47;;;16.44;83.67
9129;BME280;4599;50.906;6.786;2023-07-31T01:52:23;99857.81;;;16.49;83.39
9129;BME280;4599;50.906;6.786;2023-07-31T01:56:45;99858.31;;;16.52;84.20
9129;BME280;4599;50.906;6.786;2023-07-31T02:01:08;99856.09;;;16.57;82.95
9129;BME280;4599;50.906;6.786;2023-07-31T02:05:30;99852.88;;;16.63;82.08
9129;BME280;4599;50.906;6.786;2023-07-31T02:09:52;99847.56;;;16.65;82.40
9129;BME280;4599;50.906;6.786;2023-07-31T02:14:14;99838.28;;;16.46;83.59
9129;BME280;4599;50.906;6.786;2023-07-31T02:18:37;99835.84;;;16.53;83.23
9129;BME280;4599;50.906;6.786;2023-07-31T02:22:59;99830.16;;;16.41;84.28
9129;BME280;4599;50.906;6.786;2023-07-31T02:27:20;99814.03;;;16.47;83.04
9129;BME280;4599;50.906;6.786;2023-07-31T02:31:42;99812.63;;;16.61;81.70
9129;BME280;4599;50.906;6.786;2023-07-31T02:36:06;99822.63;;;16.56;82.43
9129;BME280;4599;50.906;6.786;2023-07-31T02:40:28;99815.94;;;16.45;83.15
9129;BME280;4599;50.906;6.786;2023-07-31T02:44:50;99815.78;;;16.55;82.14
9129;BME280;4599;50.906;6.786;2023-07-31T02:49:11;99811.94;;;16.59;81.22
9129;BME280;4599;50.906;6.786;2023-07-31T02:53:35;99812.13;;;16.57;82.71
9129;BME280;4599;50.906;6.786;2023-07-31T02:57:56;99808.34;;;16.52;82.98
9129;BME280;4599;50.906;6.786;2023-07-31T03:02:18;99812.91;;;16.50;82.24
9129;BME280;4599;50.906;6.786;2023-07-31T03:06:41;99805.34;;;16.64;81.09
9129;BME280;4599;50.906;6.786;2023-07-31T03:11:04;99795.16;;;16.71;81.46
9129;BME280;4599;50.906;6.786;2023-07-31T03:15:26;99799.03;;;16.67;82.75
9129;BME280;4599;50.906;6.786;2023-07-31T03:19:48;99799.03;;;16.75;80.49
9129;BME280;4599;50.906;6.786;2023-07-31T03:24:10;99794.00;;;16.81;80.50
9129;BME280;4599;50.906;6.786;2023-07-31T03:28:34;99787.69;;;16.76;80.42
9129;BME280;4599;50.906;6.786;2023-07-31T03:32:56;99778.34;;;16.75;80.65
9129;BME280;4599;50.906;6.786;2023-07-31T03:37:18;99788.34;;;16.86;80.49
9129;BME280;4599;50.906;6.786;2023-07-31T03:41:39;99791.75;;;16.70;81.21
9129;BME280;4599;50.906;6.786;2023-07-31T03:46:03;99785.59;;;16.63;82.50
9129;BME280;4599;50.906;6.786;2023-07-31T03:50:25;99771.22;;;16.61;83.19
9129;BME280;4599;50.906;6.786;2023-07-31T03:54:46;99768.13;;;16.65;82.71
9129;BME280;4599;50.906;6.786;2023-07-31T03:59:08;99761.19;;;16.66;84.65
9129;BME280;4599;50.906;6.786;2023-07-31T04:03:32;99765.38;;;16.59;84.57
9129;BME280;4599;50.906;6.786;2023-07-31T04:07:53;99758.91;;;16.47;85.91
9129;BME280;4599;50.906;6.786;2023-07-31T04:12:15;99752.28;;;16.36;86.69
9129;BME280;4599;50.906;6.786;2023-07-31T04:16:37;99753.25;;;16.43;86.82
9129;BME280;4599;50.906;6.786;2023-07-31T04:21:01;99752.44;;;16.34;85.29
9129;BME280;4599;50.906;6.786;2023-07-31T04:25:23;99745.66;;;16.66;84.40
9129;BME280;4599;50.906;6.786;2023-07-31T04:29:45;99741.44;;;16.73;83.22
9129;BME280;4599;50.906;6.786;2023-07-31T04:34:07;99744.84;;;16.73;82.50
9129;BME280;4599;50.906;6.786;2023-07-31T04:38:31;99748.09;;;16.75;82.16
9129;BME280;4599;50.906;6.786;2023-07-31T04:42:53;99741.13;;;16.76;82.63
9129;BME280;4599;50.906;6.786;2023-07-31T04:47:15;99743.53;;;16.77;81.76
9129;BME280;4599;50.906;6.786;2023-07-31T04:51:37;99741.28;;;16.82;82.90
9129;BME280;4599;50.906;6.786;2023-07-31T04:56:00;99739.81;;;16.96;81.01
9129;BME280;4599;50.906;6.786;2023-07-31T05:00:22;99735.44;;;16.97;81.12
9129;BME280;4599;50.906;6.786;2023-07-31T05:04:44;99726.19;;;16.94;80.96
9129;BME280;4599;50.906;6.786;2023-07-31T05:09:06;99720.66;;;17.13;79.54
9129;BME280;4599;50.906;6.786;2023-07-31T05:13:30;99717.09;;;17.14;81.35
9129;BME280;4599;50.906;6.786;2023-07-31T05:17:52;99712.88;;;17.21;80.45
9129;BME280;4599;50.906;6.786;2023-07-31T05:22:13;99716.41;;;17.28;79.01
9129;BME280;4599;50.906;6.786;2023-07-31T05:26:37;99708.44;;;17.30;79.14
9129;BME280;4599;50.906;6.786;2023-07-31T05:31:01;99696.53;;;17.21;79.92
9129;BME280;4599;50.906;6.786;2023-07-31T05:35:23;99691.09;;;17.38;79.54
9129;BME280;4599;50.906;6.786;2023-07-31T05:39:45;99681.41;;;17.32;77.25
9129;BME280;4599;50.906;6.786;2023-07-31T05:44:06;99675.25;;;17.33;78.93
9129;BME280;4599;50.906;6.786;2023-07-31T05:48:30;99662.50;;;17.32;76.85
9129;BME280;4599;50.906;6.786;2023-07-31T05:52:52;99654.06;;;17.30;78.15
9129;BME280;4599;50.906;6.786;2023-07-31T05:57:14;99667.00;;;17.30;79.52
9129;BME280;4599;50.906;6.786;2023-07-31T06:01:36;99668.88;;;17.13;80.49
9129;BME280;4599;50.906;6.786;2023-07-31T06:05:59;99665.91;;;17.24;79.45
9129;BME280;4599;50.906;6.786;2023-07-31T06:10:21;99673.56;;;17.18;82.58
9129;BME280;4599;50.906;6.786;2023-07-31T06:14:43;99662.16;;;16.96;80.92
9129;BME280;4599;50.906;6.786;2023-07-31T06:19:05;99665.38;;;16.98;81.99
9129;BME280;4599;50.906;6.786;2023-07-31T06:23:28;99658.25;;;17.00;83.74
9129;BME280;4599;50.906;6.786;2023-07-31T06:27:50;99653.94;;;17.23;82.43
9129;BME280;4599;50.906;6.786;2023-07-31T06:32:12;99649.31;;;17.11;83.96
9129;BME280;4599;50.906;6.786;2023-07-31T06:36:34;99652.91;;;17.32;82.26
9129;BME280;4599;50.906;6.786;2023-07-31T06:40:58;99663.13;;;17.34;84.10
9129;BME280;4599;50.906;6.786;2023-07-31T06:45:20;99663.97;;;17.57;83.73
9129;BME280;4599;50.906;6.786;2023-07-31T06:49:41;99654.03;;;17.92;82.40
9129;BME280;4599;50.906;6.786;2023-07-31T06:54:03;99644.25;;;18.02;82.34
9129;BME280;4599;50.906;6.786;2023-07-31T06:58:26;99648.44;;;18.40;79.71
9129;BME280;4599;50.906;6.786;2023-07-31T07:02:49;99642.06;;;18.65;78.20
9129;BME280;4599;50.906;6.786;2023-07-31T07:07:11;99649.84;;;18.95;79.76
9129;BME280;4599;50.906;6.786;2023-07-31T07:11:33;99648.13;;;18.72;77.78
9129;BME280;4599;50.906;6.786;2023-07-31T07:15:56;99644.19;;;18.62;78.44
9129;BME280;4599;50.906;6.786;2023-07-31T07:20:18;99646.38;;;18.35;80.19
9129;BME280;4599;50.906;6.786;2023-07-31T07:24:40;99645.75;;;18.33;78.36
9129;BME280;4599;50.906;6.786;2023-07-31T07:29:02;99655.13;;;18.20;80.47
9129;BME280;4599;50.906;6.786;2023-07-31T07:33:26;99653.63;;;18.03;80.28
9129;BME280;4599;50.906;6.786;2023-07-31T07:37:48;99655.25;;;17.81;82.65
9129;BME280;4599;50.906;6.786;2023-07-31T07:42:13;99637.38;;;17.86;80.96
9129;BME280;4599;50.906;6.786;2023-07-31T07:46:35;99644.31;;;17.71;80.30
9129;BME280;4599;50.906;6.786;2023-07-31T07:50:59;99642.75;;;17.62;80.85
9129;BME280;4599;50.906;6.786;2023-07-31T07:55:21;99657.31;;;17.63;81.44
9129;BME280;4599;50.906;6.786;2023-07-31T07:59:43;99652.72;;;17.42;81.74
9129;BME280;4599;50.906;6.786;2023-07-31T08:04:05;99637.19;;;17.42;80.91
9129;BME280;4599;50.906;6.786;2023-07-31T08:08:29;99644.97;;;17.34;80.41
9129;BME280;4599;50.906;6.786;2023-07-31T08:12:50;99636.06;;;17.36;81.94
9129;BME280;4599;50.906;6.786;2023-07-31T08:17:13;99620.81;;;17.41;81.66
9129;BME280;4599;50.906;6.786;2023-07-31T08:21:35;99626.38;;;17.30;83.65
9129;BME280;4599;50.906;6.786;2023-07-31T08:25:58;99621.09;;;17.47;84.17
9129;BME280;4599;50.906;6.786;2023-07-31T08:30:20;99615.75;;;17.48;82.84
9129;BME280;4599;50.906;6.786;2023-07-31T08:34:44;99609.16;;;17.68;84.03
9129;BME280;4599;50.906;6.786;2023-07-31T08:39:06;99611.03;;;17.60;84.85
9129;BME280;4599;50.906;6.786;2023-07-31T08:43:38;99614.91;;;17.56;84.89
9129;BME280;4599;50.906;6.786;2023-07-31T08:48:01;99616.38;;;17.58;85.21
9129;BME280;4599;50.906;6.786;2023-07-31T08:52:23;99615.34;;;17.67;85.93
9129;BME280;4599;50.906;6.786;2023-07-31T08:56:46;99619.53;;;17.68;85.55
9129;BME280;4599;50.906;6.786;2023-07-31T09:01:10;99629.63;;;17.63;84.96
9129;BME280;4599;50.906;6.786;2023-07-31T09:05:36;99616.09;;;17.76;84.58
9129;BME280;4599;50.906;6.786;2023-07-31T09:10:00;99625.75;;;17.82;80.43
9129;BME280;4599;50.906;6.786;2023-07-31T09:14:24;99615.00;;;17.70;79.18
9129;BME280;4599;50.906;6.786;2023-07-31T09:18:54;99593.88;;;17.59;81.18
9129;BME280;4599;50.906;6.786;2023-07-31T09:23:16;99619.31;;;17.78;84.21
9129;BME280;4599;50.906;6.786;2023-07-31T09:27:46;99594.44;;;17.92;83.98
9129;BME280;4599;50.906;6.786;2023-07-31T09:32:15;99600.19;;;17.79;80.69
9129;BME280;4599;50.906;6.786;2023-07-31T09:36:41;99598.00;;;17.90;80.24
9129;BME280;4599;50.906;6.786;2023-07-31T09:41:05;99590.53;;;18.10;78.31
9129;BME280;4599;50.906;6.786;2023-07-31T09:45:27;99579.34;;;18.10;80.46
9129;BME280;4599;50.906;6.786;2023-07-31T09:50:07;99578.94;;;18.21;79.81
9129;BME280;4599;50.906;6.786;2023-07-31T09:54:32;99581.28;;;18.45;77.72
9129;BME280;4599;50.906;6.786;2023-07-31T09:58:55;99568.13;;;18.61;75.40
9129;BME280;4599;50.906;6.786;2023-07-31T10:03:18;99561.44;;;18.67;76.00
9129;BME280;4599;50.906;6.786;2023-07-31T10:07:43;99557.19;;;18.95;74.47
9129;BME280;4599;50.906;6.786;2023-07-31T10:12:11;99560.66;;;19.02;73.10
9129;BME280;4599;50.906;6.786;2023-07-31T10:16:38;99565.41;;;18.99;72.86
9129;BME280;4599;50.906;6.786;2023-07-31T10:21:01;99559.66;;;18.88;74.46
9129;BME280;4599;50.906;6.786;2023-07-31T10:25:24;99559.00;;;18.80;74.51
9129;BME280;4599;50.906;6.786;2023-07-31T10:29:49;99565.50;;;19.26;74.71
9129;BME280;4599;50.906;6.786;2023-07-31T10:34:12;99555.88;;;19.42;71.72
9129;BME280;4599;50.906;6.786;2023-07-31T10:38:34;99561.41;;;19.38;71.89
9129;BME280;4599;50.906;6.786;2023-07-31T10:42:57;99557.81;;;19.18;73.66
9129;BME280;4599;50.906;6.786;2023-07-31T10:47:22;99563.03;;;19.04;73.33
9129;BME280;4599;50.906;6.786;2023-07-31T10:51:44;99575.88;;;19.05;72.53
9129;BME280;4599;50.906;6.786;2023-07-31T10:56:07;99570.84;;;19.04;73.24
9129;BME280;4599;50.906;6.786;2023-07-31T11:00:31;99555.28;;;18.89;76.50
9129;BME280;4599;50.906;6.786;2023-07-31T11:05:10;99567.47;;;18.88;73.83
9129;BME280;4599;50.906;6.786;2023-07-31T11:09:32;99540.88;;;18.86;74.16
9129;BME280;4599;50.906;6.786;2023-07-31T11:13:55;99539.31;;;19.07;73.76
9129;BME280;4599;50.906;6.786;2023-07-31T11:18:17;99539.75;;;19.74;70.45
9129;BME280;4599;50.906;6.786;2023-07-31T11:22:41;99537.09;;;20.23;70.16
9129;BME280;4599;50.906;6.786;2023-07-31T11:27:07;99537.81;;;20.79;67.71
9129;BME280;4599;50.906;6.786;2023-07-31T11:31:29;99553.59;;;20.71;69.35
9129;BME280;4599;50.906;6.786;2023-07-31T11:35:51;99538.28;;;21.02;66.99
9129;BME280;4599;50.906;6.786;2023-07-31T11:40:16;99538.44;;;20.88;67.34
9129;BME280;4599;50.906;6.786;2023-07-31T11:44:40;99527.75;;;21.56;63.63
9129;BME280;4599;50.906;6.786;2023-07-31T11:49:02;99524.13;;;21.44;66.18
9129;BME280;4599;50.906;6.786;2023-07-31T11:53:28;99523.16;;;20.71;66.80
9129;BME280;4599;50.906;6.786;2023-07-31T11:57:56;99523.44;;;20.42;67.97
9129;BME280;4599;50.906;6.786;2023-07-31T12:02:21;99529.16;;;20.31;69.66
9129;BME280;4599;50.906;6.786;2023-07-31T12:06:46;99525.78;;;20.37;70.83
9129;BME280;4599;50.906;6.786;2023-07-31T12:11:09;99522.28;;;20.23;69.75
9129;BME280;4599;50.906;6.786;2023-07-31T12:15:40;99513.63;;;20.44;68.78
9129;BME280;4599;50.906;6.786;2023-07-31T12:20:04;99516.91;;;20.66;68.90
9129;BME280;4599;50.906;6.786;2023-07-31T12:24:26;99511.19;;;20.36;67.58
9129;BME280;4599;50.906;6.786;2023-07-31T12:28:49;99511.56;;;20.05;68.91
9129;BME280;4599;50.906;6.786;2023-07-31T12:33:14;99514.19;;;20.33;69.01
9129;BME280;4599;50.906;6.786;2023-07-31T12:37:36;99517.19;;;20.37;68.17
9129;BME280;4599;50.906;6.786;2023-07-31T12:41:59;99513.31;;;19.98;69.35
9129;BME280;4599;50.906;6.786;2023-07-31T12:46:21;99514.56;;;19.74;70.72
9129;BME280;4599;50.906;6.786;2023-07-31T12:50:45;99529.91;;;19.91;69.60
9129;BME280;4599;50.906;6.786;2023-07-31T12:55:07;99471.91;;;19.62;70.76
9129;BME280;4599;50.906;6.786;2023-07-31T12:59:29;99490.03;;;20.18;68.84
9129;BME280;4599;50.906;6.786;2023-07-31T13:03:52;99487.75;;;20.29;67.63
9129;BME280;4599;50.906;6.786;2023-07-31T13:08:15;99468.47;;;20.24;69.39
9129;BME280;4599;50.906;6.786;2023-07-31T13:12:38;99463.19;;;20.11;69.67
9129;BME280;4599;50.906;6.786;2023-07-31T13:17:00;99460.94;;;20.35;67.93
9129;BME280;4599;50.906;6.786;2023-07-31T13:21:22;99436.13;;;20.40;69.20
9129;BME280;4599;50.906;6.786;2023-07-31T13:25:46;99425.84;;;20.92;66.89
9129;BME280;4599;50.906;6.786;2023-07-31T13:30:08;99425.84;;;21.05;64.73
9129;BME280;4599;50.906;6.786;2023-07-31T13:34:30;99412.25;;;21.23;64.66
9129;BME280;4599;50.906;6.786;2023-07-31T13:38:53;99429.91;;;21.34;65.24
9129;BME280;4599;50.906;6.786;2023-07-31T13:43:17;99436.94;;;21.47;63.95
9129;BME280;4599;50.906;6.786;2023-07-31T13:47:39;99419.22;;;21.68;62.80
9129;BME280;4599;50.906;6.786;2023-07-31T13:52:02;99424.00;;;21.98;61.52
9129;BME280;4599;50.906;6.786;2023-07-31T13:56:24;99413.88;;;22.27;59.17
9129;BME280;4599;50.906;6.786;2023-07-31T14:00:52;99430.66;;;21.74;61.00
9129;BME280;4599;50.906;6.786;2023-07-31T14:05:17;99422.69;;;21.36;62.65
9129;BME280;4599;50.906;6.786;2023-07-31T14:09:39;99433.84;;;20.84;63.81
9129;BME280;4599;50.906;6.786;2023-07-31T14:14:01;99435.63;;;20.77;64.80
9129;BME280;4599;50.906;6.786;2023-07-31T14:18:25;99442.22;;;20.66;64.76
9129;BME280;4599;50.906;6.786;2023-07-31T14:22:47;99425.53;;;20.41;66.84
9129;BME280;4599;50.906;6.786;2023-07-31T14:27:09;99430.41;;;20.23;67.09
9129;BME280;4599;50.906;6.786;2023-07-31T14:31:31;99426.28;;;20.28;66.44
9129;BME280;4599;50.906;6.786;2023-07-31T14:35:55;99419.66;;;20.26;66.40
9129;BME280;4599;50.906;6.786;2023-07-31T14:40:16;99419.47;;;20.27;65.98
9129;BME280;4599;50.906;6.786;2023-07-31T14:44:38;99407.25;;;20.28;65.94
9129;BME280;4599;50.906;6.786;2023-07-31T14:49:00;99404.78;;;20.13;65.96
9129;BME280;4599;50.906;6.786;2023-07-31T14:53:24;99410.53;;;20.02;66.24
9129;BME280;4599;50.906;6.786;2023-07-31T14:57:46;99397.31;;;19.97;66.14
9129;BME280;4599;50.906;6.786;2023-07-31T15:02:09;99400.66;;;19.91;67.14
9129;BME280;4599;50.906;6.786;2023-07-31T15:06:31;99401.88;;;19.95;66.22
9129;BME280;4599;50.906;6.786;2023-07-31T15:10:57;99393.94;;;20.03;66.45
9129;BME280;4599;50.906;6.786;2023-07-31T15:15:20;99397.59;;;20.15;65.94
9129;BME280;4599;50.906;6.786;2023-07-31T15:19:42;99401.91;;;20.02;66.26
9129;BME280;4599;50.906;6.786;2023-07-31T15:24:04;99395.34;;;20.06;65.70
9129;BME280;4599;50.906;6.786;2023-07-31T15:28:27;99385.28;;;19.96;66.35
9129;BME280;4599;50.906;6.786;2023-07-31T15:32:49;99379.50;;;19.94;66.10
9129;BME280;4599;50.906;6.786;2023-07-31T15:37:11;99361.25;;;19.87;65.92
9129;BME280;4599;50.906;6.786;2023-07-31T15:41:33;99359.97;;;19.70;66.50
9129;BME280;4599;50.906;6.786;2023-07-31T15:45:57;99359.13;;;19.63;68.67
9129;BME280;4599;50.906;6.786;2023-07-31T15:50:19;99373.84;;;19.50;70.64
9129;BME280;4599;50.906;6.786;2023-07-31T15:54:40;99354.88;;;19.28;72.93
9129;BME280;4599;50.906;6.786;2023-07-31T15:59:02;99358.16;;;19.09;73.72
9129;BME280;4599;50.906;6.786;2023-07-31T16:03:27;99327.41;;;19.12;72.91
9129;BME280;4599;50.906;6.786;2023-07-31T16:07:51;99335.50;;;19.03;73.04
9129;BME280;4599;50.906;6.786;2023-07-31T16:12:13;99341.50;;;19.03;74.58
9129;BME280;4599;50.906;6.786;2023-07-31T16:16:34;99324.84;;;18.91;74.49
9129;BME280;4599;50.906;6.786;2023-07-31T16:20:59;99330.13;;;18.76;77.59
9129;BME280;4599;50.906;6.786;2023-07-31T16:25:21;99324.22;;;18.47;78.63
9129;BME280;4599;50.906;6.786;2023-07-31T16:29:43;99322.75;;;18.37;80.18
9129;BME280;4599;50.906;6.786;2023-07-31T16:34:05;99317.91;;;18.13;81.23
9129;BME280;4599;50.906;6.786;2023-07-31T16:38:28;99316.75;;;18.01;82.93
9129;BME280;4599;50.906;6.786;2023-07-31T16:42:50;99303.94;;;18.14;82.52
9129;BME280;4599;50.906;6.786;2023-07-31T16:47:12;99275.03;;;17.96;82.85
9129;BME280;4599;50.906;6.786;2023-07-31T16:51:34;99279.28;;;18.04;83.49
9129;BME280;4599;50.906;6.786;2023-07-31T16:55:58;99270.38;;;18.06;82.89
9129;BME280;4599;50.906;6.786;2023-07-31T17:00:20;99256.69;;;17.98;82.76
9129;BME280;4599;50.906;6.786;2023-07-31T17:04:42;99244.75;;;17.82;84.11
9129;BME280;4599;50.906;6.786;2023-07-31T17:09:04;99243.88;;;17.75;84.11
9129;BME280;4599;50.906;6.786;2023-07-31T17:13:28;99236.22;;;17.81;83.53
9129;BME280;4599;50.906;6.786;2023-07-31T17:17:52;99240.34;;;17.61;85.06
9129;BME280;4599;50.906;6.786;2023-07-31T17:22:14;99224.34;;;17.58;85.38
9129;BME280;4599;50.906;6.786;2023-07-31T17:26:38;99226.03;;;17.51;86.03
9129;BME280;4599;50.906;6.786;2023-07-31T17:31:01;99217.81;;;17.47;86.88
9129;BME280;4599;50.906;6.786;2023-07-31T17:35:23;99213.81;;;17.45;86.83
9129;BME280;4599;50.906;6.786;2023-07-31T17:39:48;99208.47;;;17.46;87.25
9129;BME280;4599;50.906;6.786;2023-07-31T17:44:11;99200.88;;;17.59;87.09
9129;BME280;4599;50.906;6.786;2023-07-31T17:48:34;99203.19;;;17.39;87.18
9129;BME280;4599;50.906;6.786;2023-07-31T17:52:57;99197.13;;;17.32;87.65
9129;BME280;4599;50.906;6.786;2023-07-31T17:57:19;99189.13;;;17.27;89.24
9129;BME280;4599;50.906;6.786;2023-07-31T18:01:41;99181.16;;;17.29;88.43
9129;BME280;4599;50.906;6.786;2023-07-31T18:06:06;99180.69;;;17.40;88.22
9129;BME280;4599;50.906;6.786;2023-07-31T18:10:28;99186.13;;;17.45;87.78
9129;BME280;4599;50.906;6.786;2023-07-31T18:14:50;99186.97;;;17.31;88.33
9129;BME280;4599;50.906;6.786;2023-07-31T18:19:12;99188.09;;;17.43;87.65
9129;BME280;4599;50.906;6.786;2023-07-31T18:23:36;99174.00;;;17.31;88.40
9129;BME280;4599;50.906;6.786;2023-07-31T18:27:59;99166.78;;;17.26;88.29
9129;BME280;4599;50.906;6.786;2023-07-31T18:32:21;99155.81;;;17.24;87.81
9129;BME280;4599;50.906;6.786;2023-07-31T18:36:43;99153.59;;;17.21;88.70
9129;BME280;4599;50.906;6.786;2023-07-31T18:41:06;99146.00;;;17.20;88.50
9129;BME280;4599;50.906;6.786;2023-07-31T18:45:28;99157.09;;;17.14;88.14
9129;BME280;4599;50.906;6.786;2023-07-31T18:49:50;99146.38;;;17.17;87.80
9129;BME280;4599;50.906;6.786;2023-07-31T18:54:12;99143.88;;;17.09;88.92
9129;BME280;4599;50.906;6.786;2023-07-31T18:58:35;99129.00;;;16.96;88.99
9129;BME280;4599;50.906;6.786;2023-07-31T19:02:57;99108.44;;;16.95;88.97
9129;BME280;4599;50.906;6.786;2023-07-31T19:07:19;99112.56;;;16.89;89.64
9129;BME280;4599;50.906;6.786;2023-07-31T19:11:43;99099.34;;;16.84;89.58
9129;BME280;4599;50.906;6.786;2023-07-31T19:16:07;99098.38;;;16.85;89.61
9129;BME280;4599;50.906;6.786;2023-07-31T19:20:31;99086.25;;;16.85;89.43
9129;BME280;4599;50.906;6.786;2023-07-31T19:24:53;99064.59;;;16.72;89.95
9129;BME280;4599;50.906;6.786;2023-07-31T19:29:14;99060.03;;;16.74;89.82
9129;BME280;4599;50.906;6.786;2023-07-31T19:33:38;99030.97;;;16.72;90.23
9129;BME280;4599;50.906;6.786;2023-07-31T19:37:59;99014.91;;;16.62;90.61
9129;BME280;4599;50.906;6.786;2023-07-31T19:42:21;98992.34;;;16.56;90.29
9129;BME280;4599;50.906;6.786;2023-07-31T19:46:43;99006.16;;;16.63;90.83
9129;BME280;4599;50.906;6.786;2023-07-31T19:51:10;99025.16;;;16.70;89.79
9129;BME280;4599;50.906;6.786;2023-07-31T19:55:32;99012.94;;;16.64;90.05
9129;BME280;4599;50.906;6.786;2023-07-31T19:59:55;99029.44;;;16.63;90.26
9129;BME280;4599;50.906;6.786;2023-07-31T20:04:17;99015.16;;;16.67;89.53
9129;BME280;4599;50.906;6.786;2023-07-31T20:08:41;99008.66;;;16.71;88.96
9129;BME280;4599;50.906;6.786;2023-07-31T20:13:04;99027.56;;;16.71;89.42
9129;BME280;4599;50.906;6.786;2023-07-31T20:17:26;99014.50;;;16.79;89.93
9129;BME280;4599;50.906;6.786;2023-07-31T20:21:48;99033.25;;;16.81;89.59
9129;BME280;4599;50.906;6.786;2023-07-31T20:26:11;99045.22;;;16.82;90.27
9129;BME280;4599;50.906;6.786;2023-07-31T20:30:33;99032.28;;;16.82;89.50
9129;BME280;4599;50.906;6.786;2023-07-31T20:34:55;99009.06;;;16.89;89.52
9129;BME280;4599;50.906;6.786;2023-07-31T20:39:16;99015.75;;;16.83;89.15
9129;BME280;4599;50.906;6.786;2023-07-31T20:43:40;99013.00;;;16.85;90.03
9129;BME280;4599;50.906;6.786;2023-07-31T20:48:02;98996.22;;;16.81;89.56
9129;BME280;4599;50.906;6.786;2023-07-31T20:52:24;98991.44;;;16.78;90.60
9129;BME280;4599;50.906;6.786;2023-07-31T20:56:46;98985.44;;;16.77;89.67
9129;BME280;4599;50.906;6.786;2023-07-31T21:01:09;98967.50;;;16.76;90.83
9129;BME280;4599;50.906;6.786;2023-07-31T21:05:31;98966.53;;;16.77;90.20
9129;BME280;4599;50.906;6.786;2023-07-31T21:09:53;98961.41;;;16.83;90.07
9129;BME280;4599;50.906;6.786;2023-07-31T21:14:15;98954.66;;;16.82;90.02
9129;BME280;4599;50.906;6.786;2023-07-31T21:18:38;98963.84;;;16.85;89.91
9129;BME280;4599;50.906;6.786;2023-07-31T21:23:00;98945.97;;;16.90;89.39
9129;BME280;4599;50.906;6.786;2023-07-31T21:27:21;98927.94;;;16.97;88.62
9129;BME280;4599;50.906;6.786;2023-07-31T21:31:43;98908.22;;;16.96;88.89
9129;BME280;4599;50.906;6.786;2023-07-31T21:36:07;98902.28;;;17.02;88.36
9129;BME280;4599;50.906;6.786;2023-07-31T21:40:28;98884.59;;;17.05;87.79
9129;BME280;4599;50.906;6.786;2023-07-31T21:44:50;98876.59;;;17.00;88.71
9129;BME280;4599;50.906;6.786;2023-07-31T21:49:12;98876.66;;;17.07;87.36
9129;BME280;4599;50.906;6.786;2023-07-31T21:53:35;98870.56;;;16.93;89.02
9129;BME280;4599;50.906;6.786;2023-07-31T21:57:57;98870.00;;;16.98;88.78
9129;BME280;4599;50.906;6.786;2023-07-31T22:02:19;98855.75;;;16.87;89.56
9129;BME280;4599;50.906;6.786;2023-07-31T22:06:41;98850.97;;;16.84;90.20
9129;BME280;4599;50.906;6.786;2023-07-31T22:11:04;98846.00;;;16.82;89.88
9129;BME280;4599;50.906;6.786;2023-07-31T22:15:26;98827.38;;;16.72;89.98
9129;BME280;4599;50.906;6.786;2023-07-31T22:19:48;98830.75;;;16.73;90.38
9129;BME280;4599;50.906;6.786;2023-07-31T22:24:10;98822.53;;;16.63;91.25
9129;BME280;4599;50.906;6.786;2023-07-31T22:28:33;98813.66;;;16.72;90.59
9129;BME280;4599;50.906;6.786;2023-07-31T22:32:55;98803.06;;;16.67;90.71
9129;BME280;4599;50.906;6.786;2023-07-31T22:37:17;98787.72;;;16.65;90.74
9129;BME280;4599;50.906;6.786;2023-07-31T22:41:39;98758.38;;;16.79;89.58
9129;BME280;4599;50.906;6.786;2023-07-31T22:46:02;98753.31;;;16.65;90.39
9129;BME280;4599;50.906;6.786;2023-07-31T22:50:24;98725.16;;;16.55;90.42
9129;BME280;4599;50.906;6.786;2023-07-31T22:54:46;98721.69;;;16.69;90.39
9129;BME280;4599;50.906;6.786;2023-07-31T22:59:08;98717.66;;;16.60;90.19
9129;BME280;4599;50.906;6.786;2023-07-31T23:03:31;98715.00;;;16.54;91.42
9129;BME280;4599;50.906;6.786;2023-07-31T23:07:53;98715.97;;;16.53;91.17
9129;BME280;4599;50.906;6.786;2023-07-31T23:12:15;98706.91;;;16.57;91.55
9129;BME280;4599;50.906;6.786;2023-07-31T23:16:37;98703.94;;;16.60;91.27
9129;BME280;4599;50.906;6.786;2023-07-31T23:21:01;98699.03;;;16.71;90.77
9129;BME280;4599;50.906;6.786;2023-07-31T23:25:23;98686.84;;;16.65;91.43
9129;BME280;4599;50.906;6.786;2023-07-31T23:29:45;98691.28;;;16.71;91.09
9129;BME280;4599;50.906;6.786;2023-07-31T23:34:07;98666.25;;;16.78;90.79
9129;BME280;4599;50.906;6.786;2023-07-31T23:38:31;98681.50;;;16.67;91.69
9129;BME280;4599;50.906;6.786;2023-07-31T23:42:52;98662.97;;;16.63;92.07
9129;BME280;4599;50.906;6.786;2023-07-31T23:47:14;98669.78;;;16.71;91.86
9129;BME280;4599;50.906;6.786;2023-07-31T23:51:36;98648.69;;;16.67;91.80